createdAt,value
2022-10-14T00:01:09.120Z,4.63
2022-10-14T00:03:39.159Z,4.70
2022-10-14T00:06:08.680Z,4.30
2022-10-14T00:08:37.933Z,4.47
2022-10-14T00:11:07.235Z,4.10
2022-10-14T00:13:35.569Z,3.93
2022-10-14T00:16:04.303Z,3.90
2022-10-14T00:18:32.671Z,4.07
2022-10-14T00:21:02.740Z,3.60
2022-10-14T00:23:30.618Z,3.50
2022-10-14T00:25:59.846Z,3.33
2022-10-14T00:28:27.791Z,4.00
2022-10-14T00:30:56.684Z,3.57
2022-10-14T00:33:24.785Z,3.17
2022-10-14T00:35:56.864Z,3.17
2022-10-14T00:38:24.848Z,3.10
2022-10-14T00:40:53.189Z,3.13
2022-10-14T00:43:24.768Z,3.03
2022-10-14T00:45:53.025Z,2.87
2022-10-14T00:48:24.296Z,3.07
2022-10-14T00:50:55.875Z,2.73
2022-10-14T00:53:23.963Z,2.70
2022-10-14T00:55:51.864Z,3.30
2022-10-14T00:58:19.856Z,2.90
2022-10-14T01:00:49.172Z,3.00
2022-10-14T01:03:21.241Z,3.20
2022-10-14T01:05:56.855Z,2.80
2022-10-14T01:08:29.922Z,3.00
2022-10-14T01:11:08.023Z,2.80
2022-10-14T01:13:38.195Z,2.70
2022-10-14T01:16:15.906Z,2.80
2022-10-14T01:18:55.626Z,2.63
2022-10-14T01:25:30.772Z,2.60
2022-10-14T01:28:19.864Z,2.40
2022-10-14T01:30:51.332Z,2.60
2022-10-14T01:33:25.203Z,2.37
2022-10-14T01:36:03.315Z,2.27
2022-10-14T01:38:35.133Z,2.47
2022-10-14T01:41:08.496Z,2.00
2022-10-14T01:43:38.409Z,2.37
2022-10-14T01:46:09.124Z,2.20
2022-10-14T01:48:42.816Z,2.00
2022-10-14T01:51:15.541Z,2.20
2022-10-14T01:53:47.144Z,2.23
2022-10-14T01:56:18.251Z,2.30
2022-10-14T01:58:47.115Z,2.30
2022-10-14T02:01:17.096Z,2.17
2022-10-14T02:03:46.657Z,2.30
2022-10-14T02:06:22.084Z,1.77
2022-10-14T02:09:10.996Z,2.10
2022-10-14T02:11:46.927Z,2.00
2022-10-14T02:14:28.404Z,1.90
2022-10-14T02:17:03.932Z,1.90
2022-10-14T02:19:38.770Z,2.13
2022-10-14T02:22:11.922Z,1.93
2022-10-14T02:24:44.524Z,1.73
2022-10-14T02:27:15.794Z,1.90
2022-10-14T02:29:47.391Z,1.70
2022-10-14T02:32:20.149Z,1.90
2022-10-14T02:34:52.170Z,1.90
2022-10-14T02:37:23.091Z,1.73
2022-10-14T02:39:59.942Z,2.27
2022-10-14T02:42:29.867Z,2.03
2022-10-14T02:45:00.304Z,2.03
2022-10-14T02:47:29.648Z,2.13
2022-10-14T02:49:57.485Z,2.20
2022-10-14T02:52:25.787Z,1.97
2022-10-14T02:54:53.712Z,2.00
2022-10-14T02:57:21.585Z,2.20
2022-10-14T02:59:49.523Z,2.30
2022-10-14T03:02:17.396Z,2.20
2022-10-14T03:04:46.655Z,2.00
2022-10-14T03:07:14.539Z,2.60
2022-10-14T03:09:42.375Z,2.13
2022-10-14T03:12:10.212Z,2.33
2022-10-14T03:14:38.072Z,2.10
2022-10-14T03:17:05.924Z,2.10
2022-10-14T03:19:33.799Z,2.47
2022-10-14T03:22:03.007Z,2.33
2022-10-14T03:24:30.955Z,2.30
2022-10-14T03:26:58.895Z,2.20
2022-10-14T03:29:26.752Z,2.30
2022-10-14T03:31:54.623Z,2.53
2022-10-14T03:34:22.460Z,2.30
2022-10-14T03:36:50.313Z,2.53
2022-10-14T03:39:20.519Z,2.57
2022-10-14T03:41:48.614Z,2.27
2022-10-14T03:44:16.450Z,2.17
2022-10-14T03:46:44.349Z,2.40
2022-10-14T03:49:12.354Z,2.43
2022-10-14T03:51:40.212Z,2.40
2022-10-14T03:54:08.292Z,1.80
2022-10-14T03:56:37.744Z,1.90
2022-10-14T03:59:05.683Z,2.20
2022-10-14T04:01:33.705Z,2.00
2022-10-14T04:04:01.620Z,2.60
2022-10-14T04:06:31.165Z,2.23
2022-10-14T04:08:59.086Z,2.43
2022-10-14T04:11:26.952Z,2.30
2022-10-14T04:13:58.810Z,2.63
2022-10-14T04:16:27.130Z,2.90
2022-10-14T04:18:55.019Z,3.03
2022-10-14T04:21:22.878Z,2.60
2022-10-14T04:23:51.637Z,2.67
2022-10-14T04:26:19.486Z,2.53
2022-10-14T04:28:47.661Z,2.63
2022-10-14T04:31:16.974Z,3.63
2022-10-14T04:33:44.811Z,2.73
2022-10-14T04:36:12.701Z,3.00
2022-10-14T04:38:40.561Z,2.90
2022-10-14T04:41:08.432Z,3.77
2022-10-14T04:43:36.305Z,3.60
2022-10-14T04:46:04.528Z,2.90
2022-10-14T04:48:34.851Z,3.40
2022-10-14T04:51:02.706Z,2.80
2022-10-14T04:53:30.528Z,3.60
2022-10-14T04:55:58.380Z,3.30
2022-10-14T04:58:26.268Z,3.57
2022-10-14T05:00:55.355Z,3.60
2022-10-14T05:03:23.219Z,3.33
2022-10-14T05:05:52.944Z,3.97
2022-10-14T05:08:20.826Z,3.70
2022-10-14T05:10:49.623Z,3.37
2022-10-14T05:13:17.823Z,3.30
2022-10-14T05:15:45.801Z,3.60
2022-10-14T05:18:13.824Z,3.37
2022-10-14T05:20:41.804Z,3.90
2022-10-14T05:23:11.910Z,3.33
2022-10-14T05:25:40.036Z,3.70
2022-10-14T05:28:07.892Z,3.70
2022-10-14T05:30:35.760Z,3.90
2022-10-14T05:33:03.713Z,3.90
2022-10-14T05:35:56.986Z,3.43
2022-10-14T05:38:20.816Z,3.80
2022-10-14T05:40:53.528Z,3.80
2022-10-14T05:43:21.472Z,3.80
2022-10-14T05:45:49.437Z,3.40
2022-10-14T05:48:17.407Z,3.67
2022-10-14T05:50:45.489Z,3.40
2022-10-14T05:53:13.997Z,3.47
2022-10-14T05:55:43.548Z,3.63
2022-10-14T05:58:11.416Z,3.80
2022-10-14T06:00:39.606Z,3.10
2022-10-14T06:03:07.570Z,3.60
2022-10-14T06:05:37.654Z,2.90
2022-10-14T06:08:06.204Z,3.30
2022-10-14T06:10:35.397Z,2.70
2022-10-14T06:13:04.776Z,3.03
2022-10-14T06:15:32.728Z,2.93
2022-10-14T06:18:00.580Z,2.80
2022-10-14T06:20:28.720Z,2.93
2022-10-14T06:22:56.740Z,2.90
2022-10-14T06:25:24.581Z,2.70
2022-10-14T06:27:52.431Z,2.53
2022-10-14T06:30:21.679Z,2.83
2022-10-14T06:32:49.547Z,3.70
2022-10-14T06:35:17.393Z,2.70
2022-10-14T06:37:46.521Z,3.40
2022-10-14T06:40:14.393Z,2.97
2022-10-14T06:42:42.224Z,3.30
2022-10-14T06:45:10.873Z,3.20
2022-10-14T06:47:40.093Z,3.70
2022-10-14T06:50:08.956Z,3.67
2022-10-14T06:52:36.817Z,4.17
2022-10-14T06:55:05.185Z,4.70
2022-10-14T06:57:33.054Z,4.80
2022-10-14T07:00:00.940Z,4.20
2022-10-14T07:02:29.061Z,4.67
2022-10-14T07:04:58.259Z,4.33
2022-10-14T07:07:26.254Z,4.17
2022-10-14T07:09:54.204Z,4.37
2022-10-14T07:12:22.308Z,4.50
2022-10-14T07:14:50.492Z,4.73
2022-10-14T07:17:18.382Z,4.37
2022-10-14T07:19:46.510Z,4.67
2022-10-14T07:22:16.511Z,4.50
2022-10-14T07:24:44.450Z,4.10
2022-10-14T07:27:12.493Z,4.20
2022-10-14T07:29:40.415Z,4.43
2022-10-14T07:32:08.270Z,4.73
2022-10-14T07:34:36.207Z,4.33
2022-10-14T07:37:04.440Z,4.13
2022-10-14T07:39:34.001Z,4.37
2022-10-14T07:42:01.873Z,4.83
2022-10-14T07:44:29.807Z,4.47
2022-10-14T07:46:58.774Z,4.30
2022-10-14T07:49:26.599Z,5.17
2022-10-14T07:51:54.447Z,5.40
2022-10-14T07:54:25.978Z,4.37
2022-10-14T07:56:55.216Z,4.87
2022-10-14T07:59:23.065Z,4.57
2022-10-14T08:01:53.133Z,3.97
2022-10-14T08:04:21.386Z,3.90
2022-10-14T08:06:49.611Z,3.87
2022-10-14T08:09:18.322Z,3.90
2022-10-14T08:11:46.831Z,3.70
2022-10-14T08:14:16.580Z,3.10
2022-10-14T08:16:44.465Z,3.40
2022-10-14T08:19:14.802Z,3.80
2022-10-14T08:21:43.793Z,3.80
2022-10-14T08:24:11.944Z,4.83
2022-10-14T08:26:41.383Z,3.47
2022-10-14T08:29:12.263Z,3.07
2022-10-14T08:31:41.481Z,3.10
2022-10-14T08:34:11.115Z,3.00
2022-10-14T08:36:39.000Z,3.13
2022-10-14T08:39:07.613Z,3.17
2022-10-14T08:41:51.661Z,3.07
2022-10-14T08:44:24.108Z,2.97
2022-10-14T08:46:56.541Z,2.97
2022-10-14T08:49:30.636Z,3.20
2022-10-14T08:52:04.531Z,2.77
2022-10-14T08:54:38.976Z,2.57
2022-10-14T08:57:13.436Z,2.80
2022-10-14T08:59:43.139Z,2.87
2022-10-14T09:02:25.268Z,2.77
2022-10-14T09:04:53.232Z,2.97
2022-10-14T09:07:22.021Z,3.63
2022-10-14T09:09:52.860Z,3.30
2022-10-14T09:12:24.703Z,3.30
2022-10-14T09:15:02.642Z,3.20
2022-10-14T09:17:38.365Z,3.40
2022-10-14T09:20:17.582Z,4.40
2022-10-14T09:22:46.500Z,4.17
2022-10-14T09:25:16.427Z,5.37
2022-10-14T09:27:44.389Z,4.23
2022-10-14T09:30:15.934Z,4.47
2022-10-14T09:32:49.118Z,4.90
2022-10-14T09:35:23.931Z,4.70
2022-10-14T09:37:52.647Z,4.47
2022-10-14T09:40:30.109Z,5.13
2022-10-14T09:43:01.041Z,5.20
2022-10-14T09:45:31.884Z,5.90
2022-10-14T09:48:07.702Z,5.83
2022-10-14T09:50:39.106Z,5.83
2022-10-14T09:53:15.728Z,5.07
2022-10-14T09:55:49.631Z,4.60
2022-10-14T09:58:20.010Z,4.63
2022-10-14T10:00:48.068Z,6.50
2022-10-14T10:03:28.681Z,5.37
2022-10-14T10:06:02.090Z,5.45
2022-10-14T10:08:30.028Z,5.50
2022-10-14T10:11:03.817Z,4.45
2022-10-14T10:13:41.516Z,4.78
2022-10-14T10:16:20.031Z,5.47
2022-10-14T10:18:49.544Z,5.25
2022-10-14T10:21:20.091Z,5.55
2022-10-14T10:23:56.805Z,4.07
2022-10-14T10:26:27.021Z,2.80
2022-10-14T10:28:57.823Z,4.00
2022-10-14T10:32:02.204Z,3.55
2022-10-14T10:35:01.564Z,3.88
2022-10-14T10:37:31.406Z,3.60
2022-10-14T10:40:18.484Z,4.10
2022-10-14T10:42:55.821Z,4.03
2022-10-14T10:45:36.618Z,3.95
2022-10-14T10:48:12.606Z,2.78
2022-10-14T10:50:49.438Z,3.75
2022-10-14T10:53:40.119Z,3.15
2022-10-14T10:56:18.402Z,3.80
2022-10-14T10:58:58.541Z,2.83
2022-10-14T11:01:40.213Z,2.60
2022-10-14T11:04:33.474Z,2.70
2022-10-14T11:07:35.251Z,2.65
2022-10-14T11:10:34.283Z,2.50
2022-10-14T11:13:07.686Z,3.17
2022-10-14T11:15:51.201Z,3.33
2022-10-14T11:18:27.723Z,2.92
2022-10-14T11:21:07.028Z,2.95
2022-10-14T11:23:59.915Z,2.67
2022-10-14T11:26:58.661Z,2.10
2022-10-14T11:29:42.928Z,1.65
2022-10-14T11:32:20.487Z,2.13
2022-10-14T11:34:58.943Z,2.03
2022-10-14T11:37:30.947Z,1.70
2022-10-14T11:40:08.686Z,2.10
2022-10-14T11:42:56.334Z,1.88
2022-10-14T11:45:42.454Z,2.00
2022-10-14T11:48:27.591Z,1.80
2022-10-14T11:51:01.141Z,1.88
2022-10-14T11:53:40.225Z,1.80
2022-10-14T11:56:24.116Z,1.80
2022-10-14T11:58:55.268Z,1.95
2022-10-14T13:12:44.954Z,2.10
2022-10-14T13:15:50.999Z,1.60
2022-10-14T13:19:00.142Z,2.00
2022-10-14T13:21:32.274Z,1.80
2022-10-14T13:24:02.759Z,1.60
2022-10-14T13:26:39.672Z,2.00
2022-10-14T13:29:25.560Z,2.57
2022-10-14T13:32:02.716Z,1.70
2022-10-14T13:34:47.464Z,1.60
2022-10-14T13:37:31.884Z,1.80
2022-10-14T13:40:08.772Z,2.23
2022-10-14T13:42:40.676Z,2.43
2022-10-14T13:45:13.646Z,2.00
2022-10-14T13:47:48.061Z,1.93
2022-10-14T13:50:20.502Z,2.20
2022-10-14T13:52:55.259Z,2.17
2022-10-14T13:55:24.767Z,2.03
2022-10-14T13:58:13.432Z,2.40
2022-10-14T14:00:46.561Z,2.00
2022-10-14T14:03:22.849Z,2.70
2022-10-14T14:05:51.637Z,2.90
2022-10-14T14:08:41.577Z,1.80
2022-10-14T14:11:16.922Z,2.00
2022-10-14T14:13:55.808Z,1.97
2022-10-14T14:16:29.547Z,2.00
2022-10-14T14:19:14.614Z,2.20
2022-10-14T14:21:42.526Z,2.30
2022-10-14T14:24:18.097Z,2.43
2022-10-14T14:26:46.631Z,2.67
2022-10-14T14:29:19.504Z,2.30
2022-10-14T14:32:05.641Z,2.67
2022-10-14T14:34:38.014Z,2.60
2022-10-14T14:40:46.150Z,2.73
2022-10-14T14:43:14.056Z,2.80
2022-10-14T14:45:44.858Z,1.80
2022-10-14T14:48:16.465Z,2.20
2022-10-14T14:50:46.513Z,2.20
2022-10-14T14:53:18.231Z,2.60
2022-10-14T14:55:58.198Z,2.80
2022-10-14T14:58:30.207Z,2.50
2022-10-14T15:00:58.763Z,2.70
2022-10-14T15:03:28.648Z,2.67
2022-10-14T15:06:01.245Z,3.63
2022-10-14T15:08:32.197Z,3.00
2022-10-14T15:11:01.280Z,2.60
2022-10-14T15:13:50.847Z,2.80
2022-10-14T15:16:35.830Z,3.20
2022-10-14T15:19:28.610Z,3.30
2022-10-14T15:22:28.624Z,2.93
2022-10-14T15:25:00.113Z,3.00
2022-10-14T15:27:31.779Z,3.17
2022-10-14T15:30:31.724Z,3.70
2022-10-14T15:33:01.354Z,4.13
2022-10-14T15:35:30.535Z,3.30
2022-10-14T15:37:59.781Z,3.80
2022-10-14T15:40:30.605Z,4.13
2022-10-14T15:42:59.066Z,3.50
2022-10-14T15:45:27.448Z,3.67
2022-10-14T15:50:30.147Z,6.87
2022-10-14T15:52:59.748Z,5.30
2022-10-14T15:55:29.939Z,5.23
2022-10-14T15:57:59.467Z,5.00
2022-10-14T16:00:27.314Z,4.37
2022-10-14T16:02:58.594Z,5.00
2022-10-14T16:05:27.106Z,6.10
2022-10-14T16:07:54.962Z,5.80
2022-10-14T16:10:28.130Z,4.83
2022-10-14T16:12:58.714Z,4.20
2022-10-14T16:15:36.559Z,4.43
2022-10-14T16:18:04.463Z,4.63
2022-10-14T16:20:33.149Z,5.20
2022-10-14T16:23:01.363Z,5.40
2022-10-14T16:25:35.146Z,5.30
2022-10-14T16:28:10.052Z,6.53
2022-10-14T16:30:39.860Z,7.10
2022-10-14T16:33:08.048Z,7.77
2022-10-14T16:35:35.911Z,6.80
2022-10-14T16:38:03.773Z,7.53
2022-10-14T16:40:36.670Z,11.27
2022-10-14T16:43:05.289Z,12.03
2022-10-14T16:45:33.565Z,10.67
2022-10-14T16:48:01.449Z,9.27
2022-10-14T16:50:29.340Z,9.63
2022-10-14T16:53:14.749Z,9.67
2022-10-14T16:55:43.978Z,9.13
2022-10-14T16:58:12.278Z,9.13
2022-10-14T17:00:42.155Z,10.07
2022-10-14T17:03:10.499Z,11.00
2022-10-14T17:05:38.319Z,8.53
2022-10-14T17:08:06.528Z,7.50
2022-10-14T17:10:34.456Z,9.83
2022-10-14T17:13:03.682Z,7.60
2022-10-14T17:15:31.505Z,8.00
2022-10-14T17:17:59.338Z,8.13
2022-10-14T17:20:27.457Z,7.50
2022-10-14T17:22:55.300Z,9.67
2022-10-14T17:25:23.153Z,6.83
2022-10-14T17:27:51.354Z,6.47
2022-10-14T17:30:20.776Z,6.77
2022-10-14T17:32:48.639Z,7.63
2022-10-14T17:35:16.671Z,8.87
2022-10-14T17:37:45.353Z,16.70
2022-10-14T17:40:13.607Z,12.10
2022-10-14T17:42:41.840Z,9.60
2022-10-14T17:45:10.951Z,9.63
2022-10-14T17:47:40.216Z,9.57
2022-10-14T17:50:08.993Z,9.80
2022-10-14T17:52:36.849Z,9.50
2022-10-14T17:55:05.105Z,8.30
2022-10-14T17:57:32.979Z,8.83
2022-10-14T18:00:00.836Z,9.60
2022-10-14T18:02:28.767Z,9.60
2022-10-14T18:04:58.036Z,8.30
2022-10-14T18:07:26.501Z,8.83
2022-10-14T18:09:54.509Z,9.20
2022-10-14T18:12:22.752Z,7.53
2022-10-14T18:14:50.681Z,12.20
2022-10-14T18:17:19.196Z,7.70
2022-10-14T18:19:51.835Z,6.50
2022-10-14T18:22:21.495Z,6.90
2022-10-14T18:24:49.338Z,6.13
2022-10-14T18:27:17.184Z,9.10
2022-10-14T18:29:45.064Z,6.60
2022-10-14T18:32:12.916Z,6.50
2022-10-14T18:34:40.816Z,7.13
2022-10-14T18:37:08.653Z,6.80
2022-10-14T18:39:37.891Z,6.80
2022-10-14T18:42:05.827Z,6.50
2022-10-14T18:44:33.692Z,7.20
2022-10-14T18:47:01.549Z,7.37
2022-10-14T18:49:29.609Z,8.97
2022-10-14T18:51:57.513Z,7.83
2022-10-14T18:54:25.809Z,7.70
2022-10-14T18:56:55.805Z,7.77
2022-10-14T18:59:24.733Z,7.80
2022-10-14T19:01:53.651Z,9.40
2022-10-14T19:04:24.024Z,9.50
2022-10-14T19:06:52.260Z,9.50
2022-10-14T19:09:24.536Z,9.03
2022-10-14T19:11:54.616Z,10.40
2022-10-14T19:14:22.907Z,12.30
2022-10-14T19:16:50.982Z,14.63
2022-10-14T19:19:20.470Z,14.60
2022-10-14T19:21:51.039Z,15.27
2022-10-14T19:24:19.113Z,15.13
2022-10-14T19:26:47.851Z,14.90
2022-10-14T19:29:17.307Z,13.03
2022-10-14T19:31:45.223Z,14.03
2022-10-14T19:34:15.544Z,22.67
2022-10-14T19:36:44.417Z,20.10
2022-10-14T19:39:14.571Z,17.30
2022-10-14T19:41:47.373Z,47.53
2022-10-14T19:44:17.416Z,117.20
2022-10-14T19:46:45.725Z,128.17
2022-10-14T19:49:15.115Z,112.23
2022-10-14T19:51:43.620Z,126.63
2022-10-14T19:54:12.938Z,116.97
2022-10-14T19:56:40.997Z,88.33
2022-10-14T19:59:09.968Z,92.70
2022-10-14T20:01:39.261Z,53.30
2022-10-14T20:04:07.563Z,37.47
2022-10-14T20:06:38.135Z,37.07
2022-10-14T20:09:06.510Z,31.50
2022-10-14T20:11:35.928Z,20.90
2022-10-14T20:14:04.038Z,24.93
2022-10-14T20:16:31.950Z,21.20
2022-10-14T20:19:01.270Z,20.50
2022-10-14T20:21:30.531Z,19.90
2022-10-14T20:23:59.358Z,23.27
2022-10-14T20:26:27.331Z,24.73
2022-10-14T20:28:55.402Z,27.10
2022-10-14T20:31:25.506Z,20.77
2022-10-14T20:33:53.457Z,17.67
2022-10-14T20:36:23.560Z,17.87
2022-10-14T20:38:51.587Z,15.63
2022-10-14T20:41:21.771Z,13.23
2022-10-14T20:43:50.026Z,14.07
2022-10-14T20:46:18.543Z,10.57
2022-10-14T20:48:47.592Z,11.90
2022-10-14T20:51:17.610Z,11.50
2022-10-14T20:53:46.856Z,10.60
2022-10-14T20:56:15.572Z,9.80
2022-10-14T20:58:43.485Z,9.83
2022-10-14T21:01:13.608Z,9.77
2022-10-14T21:03:42.390Z,10.37
2022-10-14T21:06:12.516Z,10.23
2022-10-14T21:08:40.475Z,10.37
2022-10-14T21:11:14.812Z,11.60
2022-10-14T21:13:45.481Z,10.37
2022-10-14T21:16:20.378Z,10.60
2022-10-14T21:18:53.553Z,10.73
2022-10-14T21:21:25.284Z,11.27
2022-10-14T21:23:53.304Z,10.63
2022-10-14T21:26:22.555Z,11.07
2022-10-14T21:28:50.789Z,9.50
2022-10-14T21:31:19.963Z,8.80
2022-10-14T21:33:48.152Z,9.10
2022-10-14T21:36:17.211Z,9.37
2022-10-14T21:38:45.540Z,9.83
2022-10-14T21:41:13.567Z,8.97
2022-10-14T21:43:42.930Z,8.23
2022-10-14T21:46:12.859Z,7.47
2022-10-14T21:48:41.915Z,6.43
2022-10-14T21:51:11.808Z,6.30
2022-10-14T21:53:41.454Z,6.00
2022-10-14T21:56:10.503Z,5.93
2022-10-14T21:58:39.138Z,6.03
2022-10-14T22:01:10.396Z,6.10
2022-10-14T22:03:39.687Z,5.83
2022-10-14T22:06:10.228Z,5.80
2022-10-14T22:08:39.988Z,5.77
2022-10-14T22:11:08.680Z,5.83
2022-10-14T22:13:36.712Z,6.57
2022-10-14T22:16:04.718Z,6.30
2022-10-14T22:18:33.951Z,6.50
2022-10-14T22:21:05.093Z,6.27
2022-10-14T22:23:33.408Z,6.77
2022-10-14T22:26:01.893Z,6.83
2022-10-14T22:28:31.062Z,6.40
2022-10-14T22:31:04.941Z,5.93
2022-10-14T22:33:35.148Z,5.70
2022-10-14T22:36:07.935Z,5.57
2022-10-14T22:38:35.792Z,5.30
2022-10-14T22:41:04.117Z,5.30
2022-10-14T22:43:31.993Z,5.23
2022-10-14T22:46:01.434Z,4.80
2022-10-14T22:48:30.776Z,4.97
2022-10-14T22:51:03.460Z,4.53
2022-10-14T22:53:31.518Z,4.97
2022-10-14T22:55:59.689Z,5.40
2022-10-14T22:58:27.852Z,5.17
2022-10-14T23:00:55.779Z,5.10
2022-10-14T23:03:25.535Z,5.97
2022-10-14T23:05:53.386Z,5.47
2022-10-14T23:08:22.574Z,5.33
2022-10-14T23:10:51.723Z,4.60
2022-10-14T23:13:19.597Z,4.47
2022-10-14T23:15:55.857Z,4.63
2022-10-14T23:18:23.881Z,4.37
2022-10-14T23:20:51.744Z,4.53
2022-10-14T23:23:19.773Z,4.50
2022-10-14T23:25:49.127Z,4.97
2022-10-14T23:28:17.101Z,4.70
2022-10-14T23:30:45.030Z,5.30
2022-10-14T23:33:12.875Z,5.13
2022-10-14T23:35:40.696Z,5.47
2022-10-14T23:38:08.534Z,5.47
2022-10-14T23:40:36.420Z,5.07
2022-10-14T23:43:05.652Z,5.43
2022-10-14T23:45:33.500Z,5.50
2022-10-14T23:48:01.367Z,5.50
2022-10-14T23:50:29.241Z,5.60
2022-10-14T23:52:57.084Z,5.70
2022-10-14T23:55:24.974Z,6.43
2022-10-14T23:57:52.821Z,6.47
